PH-0035 weather

Public forecast

Using degrees Celsius for public forecast. Weather courtesy of forecast.io.

Closest aviation weather report (METAR) to Joy-Nostalg Heliport

Closest report is Ninoy Aquino International Airport, 5.3 nm (9.8 km) SSW. Retrieved 2020/08/12 00:00 UTC (26 minutes ago):

RPLL 120000Z AUTO 11004KT 080V150 9999 BKN054/// BKN230/// 28/25 Q1013

Closest aviation forecast (TAF) to Joy-Nostalg Heliport

Closest forecast is Ninoy Aquino International Airport, 5.3 nm (9.8 km) SSW. Retrieved 2020-08-12 00:21 UTC (5 minutes ago):

TAF RPLL 112300Z 1200/1306 09007KT 9999 FEW022 SCT300 TX32/1206Z TN25/1222Z TEMPO 1200/1206 11010KT FEW022 SCT100 BKN300 TEMPO 1206/1212 15006KT 9000 -TSRA FEW020CB SCT022 BKN100